Time;durP1;ratioP1;P1;durP2;ratioP2;P2;SDS_P1;SDS_P2;PMS_P1;PMS_P2;Temp;Humidity;BMP_temperature;BMP_pressure;BME280_temperature;BME280_humidity;BME280_pressure;Samples;Min_cycle;Max_cycle;Signal;HPM_P1;HPM_P2
2023/03/09 00:00:57;;;;;;;6.38;4.00;;;;;;;5.38;99.26;92544.56;5068234;28;20547;-71
2023/03/09 00:03:42;;;;;;;6.80;3.42;;;;;;;5.41;99.03;92544.19;5068018;28;20090;-71
2023/03/09 00:06:10;;;;;;;6.05;3.40;;;;;;;5.41;98.19;92544.19;5042113;28;20106;-71
2023/03/09 00:08:37;;;;;;;6.65;3.50;;;;;;;5.40;99.39;92537.50;5063178;28;20553;-71
2023/03/09 00:11:04;;;;;;;5.82;3.63;;;;;;;5.22;99.40;92524.38;5068310;28;20137;-71
2023/03/09 00:13:31;;;;;;;6.40;3.47;;;;;;;5.32;100.00;92538.50;5068013;28;20084;-72
2023/03/09 00:16:07;;;;;;;6.57;4.05;;;;;;;5.32;99.88;92531.63;5068403;28;20045;-71
2023/03/09 00:18:34;;;;;;;7.72;3.67;;;;;;;5.24;100.00;92526.72;5067988;28;20090;-71
2023/03/09 00:21:02;;;;;;;7.22;4.40;;;;;;;5.20;100.00;92523.00;5068317;28;20053;-71
2023/03/09 00:23:31;;;;;;;6.95;3.80;;;;;;;5.04;100.00;92504.53;5068007;28;20122;-71
2023/03/09 00:26:03;;;;;;;7.38;4.28;;;;;;;5.13;100.00;92522.97;5068420;28;20080;-71
2023/03/09 00:28:29;;;;;;;9.77;5.63;;;;;;;5.06;100.00;92517.09;5066570;28;20044;-72
2023/03/09 00:31:00;;;;;;;8.23;4.40;;;;;;;5.04;100.00;92526.66;5068005;28;20076;-72
2023/03/09 00:33:27;;;;;;;7.47;4.30;;;;;;;4.94;100.00;92521.94;5067755;28;20444;-71
2023/03/09 00:35:54;;;;;;;8.07;4.18;;;;;;;4.86;100.00;92524.69;5067997;28;20716;-71
2023/03/09 00:38:20;;;;;;;9.57;3.95;;;;;;;4.65;100.00;92483.91;5068083;28;20057;-71
2023/03/09 00:40:48;;;;;;;7.93;4.10;;;;;;;4.78;100.00;92508.59;5028833;28;1136529;-72
2023/03/09 00:43:15;;;;;;;9.82;4.82;;;;;;;4.82;100.00;92503.91;5068206;28;20424;-71
2023/03/09 00:45:42;;;;;;;8.52;4.65;;;;;;;4.86;100.00;92497.44;5068526;28;20652;-71
2023/03/09 00:48:08;;;;;;;7.88;4.85;;;;;;;4.86;100.00;92494.91;5068992;28;20106;-71
2023/03/09 00:50:35;;;;;;;6.95;4.18;;;;;;;4.92;100.00;92495.91;5068899;28;20060;-71
2023/03/09 00:53:03;;;;;;;6.72;4.18;;;;;;;4.96;100.00;92497.09;5068715;28;20040;-71
2023/03/09 00:55:29;;;;;;;7.47;4.45;;;;;;;4.91;100.00;92489.25;5061961;28;20064;-71
2023/03/09 00:57:58;;;;;;;8.10;4.20;;;;;;;4.89;100.00;92496.28;5061851;28;20550;-71
2023/03/09 01:00:25;;;;;;;9.07;4.65;;;;;;;4.96;100.00;92494.56;5056877;28;20049;-71
2023/03/09 01:02:52;;;;;;;8.45;4.45;;;;;;;4.82;100.00;92486.09;5055345;28;20041;-71
2023/03/09 01:05:19;;;;;;;10.35;4.53;;;;;;;4.76;100.00;92495.28;5060379;28;20048;-71
2023/03/09 01:07:45;;;;;;;9.25;4.40;;;;;;;4.75;100.00;92503.09;5062185;28;20048;-71
2023/03/09 01:10:12;;;;;;;13.18;8.82;;;;;;;4.71;100.00;92495.06;5064628;28;20090;-71
2023/03/09 01:12:39;;;;;;;9.25;5.10;;;;;;;4.67;100.00;92489.56;5054175;28;20044;-71
2023/03/09 01:15:08;;;;;;;9.77;5.35;;;;;;;4.66;100.00;92490.56;5065756;28;20048;-71
2023/03/09 01:17:35;;;;;;;10.32;5.93;;;;;;;4.48;100.00;92441.97;5055133;28;20555;-71
2023/03/09 01:20:02;;;;;;;8.50;5.90;;;;;;;4.74;100.00;92469.25;5053282;28;20072;-71
2023/03/09 01:22:28;;;;;;;10.32;5.95;;;;;;;4.73;100.00;92467.69;5058155;28;20095;-71
2023/03/09 01:24:55;;;;;;;9.85;5.22;;;;;;;4.70;100.00;92469.81;5055047;28;20562;-71
2023/03/09 01:27:22;;;;;;;10.90;4.57;;;;;;;4.67;100.00;92466.69;5058800;28;20045;-71
2023/03/09 01:29:49;;;;;;;9.50;4.07;;;;;;;4.69;100.00;92471.59;5061615;28;20045;-73
2023/03/09 01:32:17;;;;;;;8.05;4.40;;;;;;;4.63;100.00;92462.19;5051064;28;20091;-72
2023/03/09 01:34:43;;;;;;;6.25;3.58;;;;;;;4.69;100.00;92458.88;5061898;28;20041;-71
2023/03/09 01:37:10;;;;;;;8.55;3.60;;;;;;;4.69;100.00;92438.50;5057358;28;20040;-71
2023/03/09 01:39:37;;;;;;;7.72;3.92;;;;;;;4.75;100.00;92447.13;5057483;28;20492;-70
2023/03/09 01:42:04;;;;;;;7.68;3.75;;;;;;;4.79;100.00;92440.69;5066275;28;20527;-72
2023/03/09 01:44:30;;;;;;;10.50;4.18;;;;;;;4.81;100.00;92436.97;5063818;28;20195;-71
2023/03/09 01:46:58;;;;;;;8.80;3.92;;;;;;;4.64;100.00;92397.59;5065096;28;20124;-71
2023/03/09 01:49:31;;;;;;;7.90;3.90;;;;;;;4.82;100.00;92419.94;5065396;28;20087;-71
2023/03/09 01:52:04;;;;;;;33.72;15.65;;;;;;;4.64;100.00;92398.38;5065304;28;20044;-72
2023/03/09 01:54:38;;;;;;;21.75;9.90;;;;;;;4.77;100.00;92428.16;5060633;28;20049;-71
2023/03/09 01:57:10;;;;;;;25.17;10.75;;;;;;;4.78;100.00;92427.16;5058313;28;20554;-71
2023/03/09 01:59:39;;;;;;;18.40;9.73;;;;;;;4.70;100.00;92413.84;5068933;28;20092;-71
2023/03/09 02:02:07;;;;;;;19.23;8.65;;;;;;;4.73;100.00;92421.09;5058303;28;20170;-71
2023/03/09 02:04:40;;;;;;;13.85;4.82;;;;;;;4.69;100.00;92423.25;5052870;28;20048;-71
2023/03/09 02:07:07;;;;;;;9.55;5.43;;;;;;;4.78;100.00;92439.13;5062411;28;20053;-71
2023/03/09 02:09:40;;;;;;;14.60;7.03;;;;;;;4.75;100.00;92449.66;5065091;28;20044;-71
2023/03/09 02:12:10;;;;;;;13.27;6.47;;;;;;;4.74;100.00;92446.34;5058373;28;20053;-71
2023/03/09 02:14:37;;;;;;;11.38;4.40;;;;;;;4.73;100.00;92437.16;5058494;28;20493;-70
2023/03/09 02:17:04;;;;;;;10.50;4.43;;;;;;;4.75;100.00;92429.31;5057816;28;20048;-71
2023/03/09 02:19:55;;;;;;;9.32;4.35;;;;;;;4.81;100.00;92431.88;5068604;28;20783;-70
2023/03/09 02:22:22;;;;;;;7.47;3.75;;;;;;;4.76;100.00;92429.13;5047177;28;20044;-70
2023/03/09 02:24:57;;;;;;;7.88;3.22;;;;;;;4.77;100.00;92435.78;5057838;28;20053;-71
2023/03/09 02:27:28;;;;;;;8.70;3.42;;;;;;;4.75;100.00;92426.75;5042952;28;20090;-70
2023/03/09 02:29:56;;;;;;;9.95;3.88;;;;;;;4.82;100.00;92428.34;5062427;28;20052;-71
2023/03/09 02:32:23;;;;;;;9.35;4.50;;;;;;;4.89;100.00;92442.84;5064450;28;20517;-71
2023/03/09 02:34:50;;;;;;;12.98;4.75;;;;;;;4.86;100.00;92433.84;5061153;28;20113;-71
2023/03/09 02:37:26;;;;;;;10.77;4.68;;;;;;;4.91;100.00;92456.94;5057851;28;20447;-73
2023/03/09 02:39:57;;;;;;;12.57;5.70;;;;;;;4.95;100.00;92455.59;5068065;28;20060;-71
2023/03/09 02:42:26;;;;;;;8.13;4.65;;;;;;;4.95;100.00;92449.69;5057741;28;20507;-71
2023/03/09 02:44:53;;;;;;;10.88;5.03;;;;;;;4.93;100.00;92434.66;5067755;28;20501;-71
2023/03/09 02:47:22;;;;;;;11.00;4.70;;;;;;;4.96;100.00;92438.56;5057743;28;20719;-71
2023/03/09 02:49:49;;;;;;;12.70;5.18;;;;;;;5.02;100.00;92431.91;5056660;28;20094;-71
2023/03/09 02:52:16;;;;;;;11.75;5.00;;;;;;;5.01;100.00;92441.31;5067428;28;20090;-71
2023/03/09 02:54:42;;;;;;;10.73;4.95;;;;;;;4.85;100.00;92403.50;5055945;28;20543;-71
2023/03/09 02:57:09;;;;;;;9.07;4.95;;;;;;;5.12;100.00;92434.84;5059117;28;20072;-72
2023/03/09 02:59:37;;;;;;;14.65;5.88;;;;;;;5.18;100.00;92446.78;5067626;28;20512;-71
2023/03/09 03:02:04;;;;;;;15.98;6.70;;;;;;;5.20;100.00;92447.38;5053461;28;20057;-71
2023/03/09 03:04:31;;;;;;;11.50;4.97;;;;;;;5.15;100.00;92447.19;5061144;28;20098;-71
2023/03/09 03:06:58;;;;;;;12.15;4.97;;;;;;;5.23;100.00;92466.56;5057489;28;20114;-71
2023/03/09 03:09:25;;;;;;;15.05;6.80;;;;;;;5.25;100.00;92462.09;5067555;28;20048;-71
2023/03/09 03:11:52;;;;;;;8.63;3.90;;;;;;;5.30;100.00;92461.50;5057301;28;20132;-71
2023/03/09 03:14:19;;;;;;;11.00;4.30;;;;;;;5.17;100.00;92437.59;5061142;28;20453;-71
2023/03/09 03:16:47;;;;;;;12.52;5.93;;;;;;;5.31;100.00;92455.41;5063621;28;20045;-72
2023/03/09 03:19:14;;;;;;;12.10;5.32;;;;;;;5.32;100.00;92454.47;5049771;28;20513;-71
2023/03/09 03:21:40;;;;;;;15.55;5.90;;;;;;;5.28;100.00;92432.91;5050111;28;20115;-71
2023/03/09 03:24:07;;;;;;;8.70;4.43;;;;;;;5.32;100.00;92446.81;5050415;28;20106;-71
2023/03/09 03:26:34;;;;;;;9.75;4.53;;;;;;;5.35;100.00;92454.06;5050126;28;20045;-71
2023/03/09 03:29:01;;;;;;;13.27;5.65;;;;;;;5.30;100.00;92454.66;5055525;28;20160;-71
2023/03/09 03:31:27;;;;;;;12.82;6.30;;;;;;;5.34;100.00;92460.13;5069678;28;20087;-71
2023/03/09 03:33:55;;;;;;;10.05;4.40;;;;;;;5.36;100.00;92460.69;5069663;28;20103;-71
2023/03/09 03:36:22;;;;;;;8.73;4.13;;;;;;;5.42;100.00;92459.91;5059166;28;20122;-71
2023/03/09 03:38:49;;;;;;;20.35;9.27;;;;;;;5.45;100.00;92451.91;5049623;28;20049;-71
2023/03/09 03:41:16;;;;;;;17.23;7.50;;;;;;;5.47;100.00;92456.78;5049535;28;20075;-71
2023/03/09 03:43:42;;;;;;;18.10;8.35;;;;;;;5.47;100.00;92451.72;5068117;28;20072;-71
2023/03/09 03:46:09;;;;;;;15.43;6.97;;;;;;;5.47;100.00;92447.38;5069537;28;20040;-71
2023/03/09 03:48:37;;;;;;;9.75;4.22;;;;;;;5.44;100.00;92452.09;5069612;28;20134;-71
2023/03/09 03:51:06;;;;;;;6.40;3.75;;;;;;;5.44;100.00;92442.69;5069541;28;20047;-71
2023/03/09 03:53:33;;;;;;;6.47;3.10;;;;;;;5.39;100.00;92431.50;5069114;28;20040;-72
2023/03/09 03:56:00;;;;;;;6.35;3.28;;;;;;;5.49;100.00;92444.63;5069689;28;20045;-71
2023/03/09 03:58:27;;;;;;;5.32;2.58;;;;;;;5.51;100.00;92447.00;5069530;28;20048;-71
2023/03/09 04:00:53;;;;;;;12.70;6.57;;;;;;;5.57;100.00;92452.09;5069315;28;20052;-71
2023/03/09 04:03:20;;;;;;;11.20;5.90;;;;;;;5.59;100.00;92449.31;5053026;28;20044;-71
2023/03/09 04:05:47;;;;;;;12.63;5.20;;;;;;;5.64;100.00;92448.75;5049253;28;20111;-71
2023/03/09 04:08:15;;;;;;;9.07;4.93;;;;;;;5.72;100.00;92456.19;5049183;28;20049;-71
2023/03/09 04:10:42;;;;;;;6.03;3.40;;;;;;;5.57;100.00;92429.16;5049423;28;20040;-71
2023/03/09 04:13:09;;;;;;;7.70;3.88;;;;;;;5.86;100.00;92455.19;5049616;28;20045;-71
2023/03/09 04:15:36;;;;;;;7.72;3.40;;;;;;;5.92;100.00;92450.28;5049326;28;20045;-71
2023/03/09 04:18:03;;;;;;;9.93;4.90;;;;;;;6.00;100.00;92458.50;5054126;28;20075;-71
2023/03/09 04:20:30;;;;;;;9.35;4.22;;;;;;;6.04;100.00;92441.06;5069204;28;20056;-71
2023/03/09 04:22:57;;;;;;;4.70;2.70;;;;;;;5.95;99.71;92427.72;5068992;28;20076;-71
2023/03/09 04:25:25;;;;;;;3.75;2.08;;;;;;;6.13;98.23;92447.50;5056594;28;20098;-71
2023/03/09 04:27:52;;;;;;;7.70;2.90;;;;;;;6.25;97.20;92450.19;5048623;28;20048;-71
2023/03/09 04:30:20;;;;;;;4.75;2.55;;;;;;;6.35;95.95;92441.34;5062107;28;20083;-70
2023/03/09 04:32:47;;;;;;;9.57;4.35;;;;;;;6.35;96.27;92431.91;5048992;28;20045;-71
2023/03/09 04:35:14;;;;;;;8.40;3.00;;;;;;;6.48;95.16;92438.72;5048955;28;20052;-70
2023/03/09 04:37:41;;;;;;;7.63;3.63;;;;;;;6.51;94.79;92433.22;5049146;28;20095;-70
2023/03/09 04:40:10;;;;;;;6.25;3.45;;;;;;;6.53;94.64;92433.78;5064969;28;20496;-71
2023/03/09 04:42:38;;;;;;;8.15;4.22;;;;;;;6.56;94.41;92432.59;5067543;28;20494;-71
2023/03/09 04:45:05;;;;;;;8.20;3.70;;;;;;;6.53;94.80;92433.78;5064900;28;20049;-71
2023/03/09 04:47:32;;;;;;;7.25;3.72;;;;;;;6.55;93.67;92438.69;5049006;28;20099;-71
2023/03/09 04:49:59;;;;;;;6.57;2.67;;;;;;;6.54;94.28;92437.16;5067048;28;20386;-71
2023/03/09 04:52:26;;;;;;;4.40;2.35;;;;;;;6.57;93.97;92441.81;5068642;28;20468;-70
2023/03/09 04:54:54;;;;;;;5.40;3.17;;;;;;;6.61;93.97;92439.66;5068688;28;20456;-70
2023/03/09 04:57:21;;;;;;;7.85;3.20;;;;;;;6.61;94.03;92447.31;5068717;28;20044;-70
2023/03/09 04:59:49;;;;;;;5.97;3.00;;;;;;;6.63;93.96;92435.13;5068772;28;20145;-70
2023/03/09 05:02:16;;;;;;;6.53;3.00;;;;;;;6.61;93.88;92439.66;5068824;28;20136;-70
2023/03/09 05:04:42;;;;;;;4.38;2.53;;;;;;;6.61;92.52;92437.13;5068915;28;20048;-70
2023/03/09 05:07:09;;;;;;;4.97;3.03;;;;;;;6.60;92.37;92431.22;5068499;28;20090;-71
2023/03/09 05:09:36;;;;;;;6.20;2.80;;;;;;;6.72;91.71;92433.13;5068246;28;20094;-70
2023/03/09 05:12:04;;;;;;;5.45;2.25;;;;;;;6.72;91.31;92426.25;5068629;28;20072;-71
2023/03/09 05:14:31;;;;;;;6.00;2.58;;;;;;;6.82;90.84;92431.69;5071064;28;20740;-71
2023/03/09 05:16:59;;;;;;;6.07;2.35;;;;;;;6.75;90.52;92425.06;5072174;28;20041;-71
2023/03/09 05:19:25;;;;;;;4.60;2.40;;;;;;;6.89;90.46;92436.00;5072224;28;20118;-71
2023/03/09 05:21:52;;;;;;;6.53;1.92;;;;;;;6.92;90.26;92441.47;5072186;28;20048;-71
2023/03/09 05:24:19;;;;;;;5.63;2.53;;;;;;;6.93;89.94;92429.47;5072583;28;20049;-71
2023/03/09 05:26:45;;;;;;;3.72;2.08;;;;;;;6.96;89.33;92429.06;5072320;28;20048;-71
2023/03/09 05:29:12;;;;;;;3.33;1.98;;;;;;;7.03;89.29;92427.25;5071849;28;20090;-72
2023/03/09 05:31:39;;;;;;;4.93;2.13;;;;;;;6.99;89.58;92425.31;5072145;28;20102;-71
2023/03/09 05:34:07;;;;;;;4.05;1.42;;;;;;;7.06;89.19;92437.06;5072061;28;20496;-71
2023/03/09 05:36:34;;;;;;;3.75;1.90;;;;;;;7.07;88.93;92432.72;5069380;28;20048;-71
2023/03/09 05:39:00;;;;;;;3.17;1.75;;;;;;;7.07;88.72;92433.50;5051900;28;20138;-71
2023/03/09 05:41:27;;;;;;;5.20;2.03;;;;;;;7.19;88.60;92445.59;5055082;28;20467;-71
2023/03/09 05:43:54;;;;;;;5.22;2.40;;;;;;;7.25;88.27;92443.97;5071998;28;20049;-71
2023/03/09 05:46:23;;;;;;;4.95;2.65;;;;;;;7.29;87.97;92440.03;5072033;28;20076;-71
2023/03/09 05:48:50;;;;;;;4.55;2.50;;;;;;;7.31;88.02;92449.03;5072179;28;20052;-71
2023/03/09 05:51:18;;;;;;;6.50;2.47;;;;;;;7.36;87.61;92448.41;5072008;28;20094;-71
2023/03/09 05:53:45;;;;;;;7.15;2.53;;;;;;;7.39;87.72;92448.00;5071514;28;20084;-71
2023/03/09 05:56:13;;;;;;;5.95;1.83;;;;;;;7.37;87.29;92449.22;5067274;28;20090;-71
2023/03/09 05:58:40;;;;;;;6.15;2.03;;;;;;;7.45;87.42;92452.28;5070198;28;20105;-71
2023/03/09 06:01:17;;;;;;;5.05;2.03;;;;;;;7.52;86.31;92467.56;5054154;28;20106;-71
2023/03/09 06:03:44;;;;;;;4.10;1.92;;;;;;;7.60;86.27;92464.75;5051230;28;20090;-71
2023/03/09 06:06:11;;;;;;;4.57;2.10;;;;;;;7.60;85.37;92464.75;5051487;28;20126;-71
2023/03/09 06:08:39;;;;;;;6.15;2.42;;;;;;;7.69;85.25;92478.03;5051319;28;20531;-71
2023/03/09 06:11:05;;;;;;;4.97;2.08;;;;;;;7.69;85.33;92477.28;5051282;28;20182;-71
2023/03/09 06:13:32;;;;;;;4.68;1.75;;;;;;;7.74;85.00;92483.31;5051124;28;20456;-72
2023/03/09 06:15:59;;;;;;;4.50;1.85;;;;;;;7.75;85.34;92471.31;5051602;28;20049;-71
2023/03/09 06:18:26;;;;;;;4.68;2.05;;;;;;;7.86;85.02;92469.81;5051336;28;20048;-71
2023/03/09 06:20:52;;;;;;;3.72;2.05;;;;;;;7.92;84.56;92466.41;5051049;28;20049;-71
2023/03/09 06:23:19;;;;;;;4.38;1.95;;;;;;;7.82;84.88;92463.59;5051118;28;20098;-71
2023/03/09 06:25:47;;;;;;;3.75;1.65;;;;;;;8.02;84.86;92476.19;5051233;28;20049;-71
2023/03/09 06:28:14;;;;;;;5.43;2.17;;;;;;;8.06;84.35;92472.19;5050980;28;20485;-71
2023/03/09 06:30:40;;;;;;;4.25;1.65;;;;;;;8.11;83.62;92469.78;5070515;28;20127;-71
2023/03/09 06:33:09;;;;;;;3.55;2.10;;;;;;;8.19;84.04;92468.72;5070878;28;20051;-72
2023/03/09 06:35:36;;;;;;;4.30;1.67;;;;;;;8.27;82.94;92480.44;5070609;28;20056;-71
2023/03/09 06:38:03;;;;;;;5.30;2.00;;;;;;;8.34;83.24;92473.47;5071279;28;20049;-71
2023/03/09 06:40:30;;;;;;;7.13;2.10;;;;;;;8.39;82.33;92477.97;5071142;28;20455;-71
2023/03/09 06:42:58;;;;;;;3.70;1.55;;;;;;;8.35;82.32;92471.72;5070866;28;20044;-71
2023/03/09 06:45:25;;;;;;;6.88;2.10;;;;;;;8.49;82.11;92470.56;5070432;28;20056;-71
2023/03/09 06:47:54;;;;;;;4.00;1.88;;;;;;;8.60;82.43;92473.44;5070481;28;20083;-71
2023/03/09 06:50:21;;;;;;;3.50;1.77;;;;;;;8.69;81.37;92461.91;5070833;28;20416;-71
2023/03/09 06:52:48;;;;;;;5.57;2.83;;;;;;;8.78;80.79;92462.38;5070471;28;20048;-71
2023/03/09 06:55:15;;;;;;;7.22;2.90;;;;;;;8.88;80.70;92467.75;5070364;28;20055;-71
2023/03/09 06:57:42;;;;;;;4.30;1.95;;;;;;;8.92;80.18;92465.53;5067884;28;20044;-71
2023/03/09 07:00:12;;;;;;;3.35;1.60;;;;;;;8.97;79.82;92475.91;5068797;28;20052;-71
2023/03/09 07:02:39;;;;;;;6.10;1.60;;;;;;;9.07;79.46;92470.25;5069824;28;20051;-72
2023/03/09 07:05:07;;;;;;;3.10;1.33;;;;;;;9.15;78.70;92459.72;5070124;28;20565;-71
2023/03/09 07:07:34;;;;;;;3.80;1.50;;;;;;;9.25;78.90;92468.66;5070234;28;20044;-71
2023/03/09 07:10:01;;;;;;;3.38;1.67;;;;;;;9.36;78.22;92473.03;5070316;28;20075;-71
2023/03/09 07:12:28;;;;;;;4.45;1.50;;;;;;;9.41;78.10;92462.09;5069981;28;20078;-71
2023/03/09 07:14:54;;;;;;;3.17;1.55;;;;;;;9.56;77.15;92461.69;5070214;28;20044;-71
2023/03/09 07:17:22;;;;;;;7.97;1.67;;;;;;;9.61;76.64;92464.34;5070176;28;20045;-71
2023/03/09 07:19:49;;;;;;;3.75;1.30;;;;;;;9.71;77.00;92463.81;5069788;28;20084;-71
2023/03/09 07:22:16;;;;;;;5.07;1.50;;;;;;;9.73;76.23;92466.94;5070169;28;20041;-71
2023/03/09 07:24:42;;;;;;;4.88;1.30;;;;;;;9.80;76.27;92464.25;5069713;28;20573;-71
2023/03/09 07:27:09;;;;;;;3.58;1.75;;;;;;;9.91;76.63;92465.28;5070111;28;20076;-71
2023/03/09 07:29:38;;;;;;;3.67;1.35;;;;;;;9.95;76.09;92468.97;5069829;28;20048;-71
2023/03/09 07:32:05;;;;;;;4.18;2.13;;;;;;;9.99;75.90;92470.03;5069705;28;20123;-71
2023/03/09 07:34:34;;;;;;;3.15;1.40;;;;;;;10.06;76.36;92464.81;5069711;28;20090;-71
2023/03/09 07:37:01;;;;;;;3.03;1.58;;;;;;;10.05;75.10;92464.03;5068985;28;20076;-71
2023/03/09 07:39:28;;;;;;;7.10;1.48;;;;;;;10.05;75.34;92464.03;5069508;28;20056;-71
2023/03/09 07:41:54;;;;;;;3.42;1.33;;;;;;;10.27;75.91;92469.38;5069200;28;20508;-71
2023/03/09 07:44:21;;;;;;;4.07;1.27;;;;;;;10.32;75.73;92471.25;5070068;28;20049;-71
2023/03/09 07:46:48;;;;;;;2.97;1.15;;;;;;;10.28;75.64;92475.28;5050484;28;20048;-71
2023/03/09 07:49:15;;;;;;;3.38;1.70;;;;;;;10.37;76.46;92471.34;5049503;28;20049;-71
2023/03/09 07:51:43;;;;;;;8.88;2.90;;;;;;;10.50;76.57;92470.34;5049485;28;20106;-71
2023/03/09 07:54:10;;;;;;;3.67;1.90;;;;;;;10.69;75.49;92475.31;5049681;28;20048;-71
2023/03/09 07:56:37;;;;;;;4.72;1.65;;;;;;;10.82;74.96;92474.28;5049502;28;20095;-71
2023/03/09 07:59:03;;;;;;;2.58;1.30;;;;;;;10.95;74.96;92468.09;5052696;28;20041;-71
2023/03/09 08:01:30;;;;;;;5.57;1.80;;;;;;;11.12;74.09;92469.91;5069376;28;20436;-71
2023/03/09 08:03:57;;;;;;;4.38;2.03;;;;;;;11.32;74.05;92470.25;5069240;28;20138;-71
2023/03/09 08:06:25;;;;;;;2.42;1.35;;;;;;;11.50;72.30;92476.19;5069075;28;20633;-71
2023/03/09 08:08:54;;;;;;;3.97;1.33;;;;;;;11.65;72.62;92473.06;5069585;28;20048;-71
2023/03/09 08:11:21;;;;;;;2.90;1.35;;;;;;;11.79;72.04;92476.13;5068812;28;20055;-71
2023/03/09 08:13:48;;;;;;;2.88;1.25;;;;;;;11.89;71.33;92476.28;5069080;28;20118;-71
2023/03/09 08:16:14;;;;;;;2.65;1.27;;;;;;;12.05;70.21;92476.53;5069086;28;20102;-71
2023/03/09 08:18:42;;;;;;;2.58;1.13;;;;;;;12.11;69.37;92467.84;5069302;28;20093;-71
2023/03/09 08:21:11;;;;;;;4.72;1.52;;;;;;;12.14;70.02;92472.50;5058159;28;20493;-71
2023/03/09 08:23:40;;;;;;;2.83;1.40;;;;;;;12.19;69.39;92474.38;5048816;28;20501;-71
2023/03/09 08:26:11;;;;;;;2.83;1.20;;;;;;;12.31;68.49;92461.38;5049223;28;20049;-71
2023/03/09 08:28:38;;;;;;;3.08;1.20;;;;;;;12.23;68.96;92439.41;5051479;28;20120;-71
2023/03/09 08:31:05;;;;;;;1.45;0.80;;;;;;;12.51;68.31;92462.66;5053233;28;20455;-71
2023/03/09 08:33:32;;;;;;;2.58;1.00;;;;;;;12.64;67.63;92464.88;5047008;28;20049;-71
2023/03/09 08:35:59;;;;;;;3.30;1.30;;;;;;;12.75;66.54;92463.19;5048998;28;20045;-71
2023/03/09 08:38:25;;;;;;;2.97;1.30;;;;;;;12.74;67.19;92455.72;5052569;28;20077;-71
2023/03/09 08:40:52;;;;;;;2.35;1.10;;;;;;;12.77;65.99;92465.53;5068569;28;20056;-71
2023/03/09 08:43:20;;;;;;;3.95;1.10;;;;;;;12.68;66.53;92457.44;5068880;28;20082;-71
2023/03/09 08:45:47;;;;;;;3.22;1.10;;;;;;;12.88;67.41;92451.75;5068974;28;20048;-71
2023/03/09 08:48:14;;;;;;;4.13;1.00;;;;;;;13.10;67.36;92459.41;5062566;28;20044;-71
2023/03/09 08:50:41;;;;;;;2.83;1.20;;;;;;;13.36;65.69;92464.03;5053264;28;20103;-71
2023/03/09 08:53:07;;;;;;;4.70;1.10;;;;;;;13.58;64.91;92455.47;5053102;28;20119;-71
2023/03/09 08:55:34;;;;;;;3.20;1.20;;;;;;;13.74;64.40;92454.56;5052621;28;20049;-71
2023/03/09 08:58:01;;;;;;;5.63;1.25;;;;;;;13.84;63.80;92453.84;5052620;28;20063;-71
2023/03/09 09:00:29;;;;;;;8.95;2.33;;;;;;;14.03;63.36;92451.63;5070872;28;20044;-72
2023/03/09 09:02:55;;;;;;;2.35;1.27;;;;;;;13.97;63.03;92450.06;5072917;28;20492;-72
2023/03/09 09:05:22;;;;;;;3.20;1.63;;;;;;;13.98;63.17;92443.09;5072768;28;20041;-71
2023/03/09 09:07:49;;;;;;;5.65;1.73;;;;;;;13.95;63.18;92431.47;5072555;28;20072;-71
2023/03/09 09:10:16;;;;;;;4.82;1.35;;;;;;;13.93;63.48;92436.06;5059448;28;20054;-71
2023/03/09 09:12:43;;;;;;;6.15;1.20;;;;;;;13.81;63.46;92425.16;5072744;28;20052;-71
2023/03/09 09:15:13;;;;;;;4.82;1.40;;;;;;;13.70;62.91;92424.34;5072584;28;20105;-71
2023/03/09 09:17:41;;;;;;;2.88;1.20;;;;;;;13.59;63.39;92433.78;5072680;28;20153;-71
2023/03/09 09:20:10;;;;;;;3.65;1.08;;;;;;;13.55;64.15;92422.41;5072376;28;20045;-71
2023/03/09 09:22:37;;;;;;;2.38;1.08;;;;;;;13.63;64.68;92432.28;5062289;28;20049;-71
2023/03/09 09:25:08;;;;;;;5.15;2.22;;;;;;;13.83;65.24;92430.84;5071486;28;20044;-71
2023/03/09 09:27:35;;;;;;;2.28;0.90;;;;;;;13.89;64.03;92406.66;5071805;28;20092;-71
2023/03/09 09:30:02;;;;;;;2.92;0.90;;;;;;;13.87;63.55;92406.88;5068429;28;20594;-72
2023/03/09 09:32:31;;;;;;;4.05;1.20;;;;;;;14.07;64.12;92410.59;5054720;28;20049;-74
2023/03/09 09:35:00;;;;;;;2.22;0.88;;;;;;;14.07;62.84;92412.41;5069813;28;20057;-73
2023/03/09 09:37:28;;;;;;;2.47;1.20;;;;;;;14.15;62.76;92407.53;5052117;28;20132;-73
2023/03/09 09:39:58;;;;;;;2.92;1.50;;;;;;;14.33;62.91;92408.13;5052051;28;20079;-72
2023/03/09 09:42:30;;;;;;;2.33;1.20;;;;;;;14.50;63.03;92407.16;5058981;28;20056;-72
2023/03/09 09:44:58;;;;;;;4.55;2.00;;;;;;;14.73;62.37;92402.56;5072001;28;20122;-71
2023/03/09 09:47:28;;;;;;;3.60;1.40;;;;;;;14.87;61.35;92398.50;5071808;28;20052;-71
2023/03/09 09:49:58;;;;;;;4.30;1.90;;;;;;;15.11;61.43;92400.59;5058595;28;20425;-71
2023/03/09 09:52:44;;;;;;;3.72;1.55;;;;;;;15.20;61.10;92399.06;5071578;28;20048;-71
2023/03/09 09:55:19;;;;;;;3.15;1.38;;;;;;;15.27;60.30;92392.84;5071657;28;20106;-71
2023/03/09 09:57:47;;;;;;;3.83;1.60;;;;;;;15.33;60.37;92390.00;5071605;28;20045;-71
2023/03/09 10:00:19;;;;;;;3.55;1.20;;;;;;;15.47;60.18;92389.47;5045442;28;20098;-71
2023/03/09 10:03:18;;;;;;;4.88;1.08;;;;;;;15.60;58.46;92388.94;5071011;28;20045;-71
2023/03/09 10:05:50;;;;;;;5.32;1.60;;;;;;;15.69;58.95;92378.84;5071488;28;20538;-71
2023/03/09 10:08:31;;;;;;;4.07;1.80;;;;;;;15.82;58.09;92385.28;5071672;28;20040;-71
2023/03/09 10:11:05;;;;;;;3.60;1.88;;;;;;;16.03;57.98;92367.16;5071348;28;20048;-71
2023/03/09 10:13:36;;;;;;;3.00;1.20;;;;;;;16.17;57.06;92362.19;5071578;28;20170;-71
2023/03/09 10:16:09;;;;;;;4.18;2.13;;;;;;;16.36;55.92;92357.19;5070523;28;20044;-72
2023/03/09 10:18:40;;;;;;;3.70;1.60;;;;;;;16.55;55.74;92354.75;5071188;28;20090;-71
2023/03/09 10:21:16;;;;;;;2.67;1.38;;;;;;;16.72;55.36;92348.44;5071073;28;20048;-71
2023/03/09 10:23:44;;;;;;;3.72;1.30;;;;;;;16.76;54.57;92338.28;5071064;28;20049;-71
2023/03/09 10:26:25;;;;;;;5.93;1.25;;;;;;;16.91;55.36;92333.00;5071138;28;20155;-71
2023/03/09 10:28:58;;;;;;;3.50;1.10;;;;;;;16.91;55.00;92314.06;5071099;28;20044;-71
2023/03/09 10:31:35;;;;;;;5.97;1.17;;;;;;;16.83;54.70;92307.63;5057671;28;20571;-72
2023/03/09 10:34:12;;;;;;;2.45;1.02;;;;;;;16.92;53.95;92320.81;5066128;28;20068;-71
2023/03/09 10:36:46;;;;;;;3.40;0.95;;;;;;;17.07;54.08;92305.16;5063062;28;20083;-71
2023/03/09 10:39:17;;;;;;;3.28;0.90;;;;;;;17.04;53.82;92299.75;5068322;28;20094;-71
2023/03/09 10:41:44;;;;;;;3.25;1.08;;;;;;;17.09;53.81;92297.84;5071066;28;20447;-72
2023/03/09 10:44:15;;;;;;;2.17;0.88;;;;;;;17.08;52.94;92282.59;5065291;28;20044;-71
2023/03/09 10:47:00;;;;;;;7.05;1.15;;;;;;;17.21;53.87;92294.91;5063204;28;20094;-71
2023/03/09 10:49:27;;;;;;;6.07;1.05;;;;;;;17.05;53.00;92290.91;5048045;28;20049;-71
2023/03/09 10:52:00;;;;;;;8.80;2.35;;;;;;;17.14;53.96;92284.09;5070460;28;20542;-71
2023/03/09 10:54:33;;;;;;;3.88;1.85;;;;;;;16.98;53.21;92277.44;5070541;28;20127;-71
2023/03/09 10:57:00;;;;;;;5.70;1.58;;;;;;;16.74;53.19;92276.31;5066434;28;20045;-71
2023/03/09 10:59:28;;;;;;;2.95;1.20;;;;;;;16.33;53.94;92274.00;5047902;28;20464;-71
2023/03/09 11:01:59;;;;;;;3.25;1.88;;;;;;;16.15;54.81;92269.16;5067767;28;20052;-72
2023/03/09 11:04:33;;;;;;;4.22;1.50;;;;;;;15.93;55.01;92273.94;5052527;28;20057;-71
2023/03/09 11:07:00;;;;;;;4.40;1.67;;;;;;;15.93;55.92;92264.38;5069590;28;20045;-72
2023/03/09 11:09:31;;;;;;;4.25;1.67;;;;;;;15.88;56.89;92265.09;5070221;28;20051;-71
2023/03/09 11:12:11;;;;;;;2.55;1.20;;;;;;;15.88;56.09;92259.19;5036772;28;20091;-71
2023/03/09 11:14:44;;;;;;;4.68;1.73;;;;;;;15.70;56.86;92252.75;5065724;28;20052;-71
2023/03/09 11:17:33;;;;;;;4.45;1.70;;;;;;;15.74;56.74;92243.44;5070259;28;20049;-71
2023/03/09 11:20:24;;;;;;;7.18;2.03;;;;;;;15.92;56.14;92246.47;5065696;28;20044;-72
2023/03/09 11:22:59;;;;;;;4.20;1.90;;;;;;;15.90;57.41;92239.75;5065716;28;20045;-71
2023/03/09 11:25:40;;;;;;;2.80;1.30;;;;;;;15.66;56.73;92223.25;5070518;28;20053;-72
2023/03/09 11:28:16;;;;;;;7.28;1.52;;;;;;;15.77;57.03;92237.72;5069607;28;20110;-71
2023/03/09 11:30:43;;;;;;;;;;;;;;;15.82;57.03;92235.09;5067801;28;20044;-72
2023/03/09 11:33:13;;;;;;;7.55;1.65;;;;;;;15.97;55.94;92218.75;5051657;28;19925;-72
2023/03/09 11:35:39;;;;;;;6.03;2.40;;;;;;;16.19;55.62;92211.66;5041857;28;20087;-72
2023/03/09 11:38:12;;;;;;;2.22;1.05;;;;;;;16.48;55.65;92200.56;5068905;28;20504;-71
2023/03/09 11:40:41;;;;;;;4.55;1.80;;;;;;;16.90;54.72;92206.94;5069530;28;20048;-71